createdAt,value
2023-07-01T00:01:37.382Z,82.94
2023-07-01T00:04:04.645Z,83.57
2023-07-01T00:06:31.278Z,83.04
2023-07-01T00:08:57.981Z,82.65
2023-07-01T00:11:24.557Z,83.66
2023-07-01T00:13:51.150Z,84.03
2023-07-01T00:16:18.176Z,84.09
2023-07-01T00:18:47.020Z,83.81
2023-07-01T00:21:13.648Z,82.88
2023-07-01T00:23:40.286Z,83.18
2023-07-01T00:26:06.925Z,83.05
2023-07-01T00:28:33.496Z,82.99
2023-07-01T00:31:00.156Z,83.51
2023-07-01T00:33:26.836Z,83.22
2023-07-01T00:35:53.445Z,84.34
2023-07-01T00:38:20.145Z,84.36
2023-07-01T00:40:46.966Z,83.16
2023-07-01T00:43:13.956Z,82.86
2023-07-01T00:45:40.570Z,83.42
2023-07-01T00:48:08.038Z,83.57
2023-07-01T00:50:35.161Z,83.45
2023-07-01T00:53:01.851Z,83.27
2023-07-01T00:55:28.438Z,82.20
2023-07-01T00:57:54.997Z,82.02
2023-07-01T01:00:21.651Z,82.65
2023-07-01T01:02:56.231Z,83.19
2023-07-01T01:05:44.509Z,84.32
2023-07-01T01:08:28.254Z,84.29
2023-07-01T01:10:57.653Z,83.76
2023-07-01T01:13:25.466Z,84.03
2023-07-01T01:15:52.935Z,83.98
2023-07-01T01:18:23.344Z,83.80
2023-07-01T01:20:52.114Z,83.71
2023-07-01T01:23:33.409Z,83.24
2023-07-01T01:26:20.273Z,83.54
2023-07-01T01:28:47.595Z,83.58
2023-07-01T01:31:14.965Z,83.80
2023-07-01T01:33:42.503Z,83.71
2023-07-01T01:36:24.633Z,84.12
2023-07-01T01:38:52.076Z,83.69
2023-07-01T01:41:24.824Z,83.09
2023-07-01T01:43:59.437Z,84.00
2023-07-01T01:46:27.276Z,84.17
2023-07-01T01:48:57.562Z,83.34
2023-07-01T01:51:25.559Z,83.53
2023-07-01T01:53:53.769Z,84.36
2023-07-01T01:56:21.945Z,84.57
2023-07-01T01:58:48.977Z,84.07
2023-07-01T02:01:16.439Z,83.34
2023-07-01T02:03:45.207Z,83.42
2023-07-01T02:06:12.221Z,84.04
2023-07-01T02:08:38.824Z,84.67
2023-07-01T02:11:05.402Z,83.79
2023-07-01T02:13:32.241Z,83.22
2023-07-01T02:15:59.363Z,83.86
2023-07-01T02:18:25.983Z,84.09
2023-07-01T02:20:52.621Z,84.22
2023-07-01T02:23:19.287Z,83.55
2023-07-01T02:25:47.136Z,83.18
2023-07-01T02:28:14.733Z,83.42
2023-07-01T02:30:41.523Z,83.27
2023-07-01T02:33:11.368Z,83.68
2023-07-01T02:35:37.942Z,83.83
2023-07-01T02:38:04.546Z,83.65
2023-07-01T02:40:31.223Z,83.28
2023-07-01T02:42:57.808Z,83.95
2023-07-01T02:45:24.385Z,83.38
2023-07-01T02:47:51.026Z,82.40
2023-07-01T02:50:17.637Z,83.09
2023-07-01T02:52:44.375Z,82.74
2023-07-01T02:55:11.402Z,82.85
2023-07-01T02:57:38.032Z,83.45
2023-07-01T03:00:09.029Z,84.00
2023-07-01T03:02:35.779Z,84.09
2023-07-01T03:05:02.457Z,82.93
2023-07-01T03:07:29.116Z,83.47
2023-07-01T03:09:56.133Z,83.03
2023-07-01T03:12:22.786Z,81.57
2023-07-01T03:14:49.555Z,81.03
2023-07-01T03:17:16.300Z,81.53
2023-07-01T03:19:43.111Z,81.26
2023-07-01T03:22:09.972Z,81.38
2023-07-01T03:24:36.675Z,82.58
2023-07-01T03:27:07.251Z,82.45
2023-07-01T03:29:34.656Z,82.93
2023-07-01T03:32:04.468Z,83.43
2023-07-01T03:34:31.684Z,83.21
2023-07-01T03:36:58.282Z,82.50
2023-07-01T03:39:24.853Z,82.43
2023-07-01T03:41:51.417Z,83.95
2023-07-01T03:44:18.007Z,84.04
2023-07-01T03:46:44.603Z,83.58
2023-07-01T03:49:11.233Z,82.20
2023-07-01T03:51:38.081Z,82.31
2023-07-01T03:54:05.295Z,83.78
2023-07-01T03:56:32.185Z,83.07
2023-07-01T03:58:58.939Z,82.55
2023-07-01T04:01:26.270Z,82.32
2023-07-01T04:03:54.555Z,82.10
2023-07-01T04:06:21.428Z,83.00
2023-07-01T04:08:55.845Z,82.33
2023-07-01T04:11:23.090Z,82.44
2023-07-01T04:13:55.111Z,82.74
2023-07-01T04:16:22.298Z,82.46
2023-07-01T04:18:49.205Z,81.81
2023-07-01T04:21:16.036Z,82.82
2023-07-01T04:23:42.829Z,83.32
2023-07-01T04:26:09.542Z,82.77
2023-07-01T04:28:36.622Z,82.46
2023-07-01T04:31:03.609Z,82.65
2023-07-01T04:33:30.380Z,82.73
2023-07-01T04:35:57.100Z,83.04
2023-07-01T04:38:23.729Z,82.41
2023-07-01T04:40:53.066Z,81.89
2023-07-01T04:43:20.554Z,81.79
2023-07-01T04:45:47.173Z,83.07
2023-07-01T04:48:14.042Z,82.60
2023-07-01T04:50:40.622Z,82.13
2023-07-01T04:53:07.303Z,82.96
2023-07-01T04:55:34.695Z,82.56
2023-07-01T04:58:01.322Z,82.68
2023-07-01T05:00:28.401Z,81.62
2023-07-01T05:02:55.878Z,80.66
2023-07-01T05:05:22.830Z,80.65
2023-07-01T05:07:50.155Z,80.74
2023-07-01T05:10:17.093Z,81.01
2023-07-01T05:12:44.073Z,81.59
2023-07-01T05:15:10.869Z,81.77
2023-07-01T05:17:37.569Z,82.05
2023-07-01T05:20:06.363Z,81.82
2023-07-01T05:22:33.395Z,81.82
2023-07-01T05:25:00.747Z,81.52
2023-07-01T05:27:27.501Z,82.30
2023-07-01T05:29:54.170Z,81.68
2023-07-01T05:32:21.144Z,81.37
2023-07-01T05:34:47.864Z,81.77
2023-07-01T05:37:14.948Z,81.28
2023-07-01T05:39:41.739Z,80.78
2023-07-01T05:42:08.961Z,80.92
2023-07-01T05:44:36.305Z,80.75
2023-07-01T05:47:03.397Z,80.76
2023-07-01T05:49:30.015Z,80.61
2023-07-01T05:51:56.868Z,80.05
2023-07-01T05:54:23.602Z,80.23
2023-07-01T05:56:50.720Z,79.83
2023-07-01T05:59:17.447Z,78.76
2023-07-01T06:01:44.600Z,79.08
2023-07-01T06:04:11.855Z,79.27
2023-07-01T06:06:40.664Z,80.00
2023-07-01T06:09:09.443Z,78.86
2023-07-01T06:11:36.468Z,78.33
2023-07-01T06:14:03.265Z,79.18
2023-07-01T06:16:29.945Z,78.12
2023-07-01T06:18:56.827Z,77.06
2023-07-01T06:21:23.497Z,76.62
2023-07-01T06:23:50.223Z,76.58
2023-07-01T06:26:17.623Z,74.90
2023-07-01T06:28:44.604Z,75.22
2023-07-01T06:31:11.571Z,76.29
2023-07-01T06:33:41.933Z,75.97
2023-07-01T06:36:08.924Z,73.15
2023-07-01T06:38:35.574Z,73.56
2023-07-01T06:41:02.343Z,74.03
2023-07-01T06:43:29.060Z,74.04
2023-07-01T06:45:56.142Z,73.51
2023-07-01T06:48:23.061Z,71.23
2023-07-01T06:50:50.059Z,72.66
2023-07-01T06:53:16.818Z,72.18
2023-07-01T06:55:43.409Z,71.69
2023-07-01T06:58:10.040Z,69.82
2023-07-01T07:00:36.704Z,71.47
2023-07-01T07:03:05.081Z,69.64
2023-07-01T07:05:34.037Z,70.55
2023-07-01T07:08:01.463Z,69.91
2023-07-01T07:10:28.114Z,70.12
2023-07-01T07:12:54.883Z,69.42
2023-07-01T07:15:21.650Z,67.57
2023-07-01T07:17:48.314Z,67.79
2023-07-01T07:20:15.377Z,67.21
2023-07-01T07:22:42.145Z,64.63
2023-07-01T07:25:15.474Z,62.83
2023-07-01T07:27:42.128Z,65.28
2023-07-01T07:30:09.169Z,65.21
2023-07-01T07:32:35.928Z,64.49
2023-07-01T07:35:02.725Z,65.04
2023-07-01T07:37:30.029Z,66.22
2023-07-01T07:40:00.108Z,64.01
2023-07-01T07:42:27.309Z,61.10
2023-07-01T07:44:53.975Z,62.33
2023-07-01T07:47:20.895Z,61.18
2023-07-01T07:49:47.548Z,61.83
2023-07-01T07:52:14.238Z,62.27
2023-07-01T07:54:43.029Z,60.88
2023-07-01T07:57:09.610Z,60.03
2023-07-01T07:59:36.202Z,61.38
2023-07-01T08:02:03.231Z,61.13
2023-07-01T08:04:30.010Z,58.29
2023-07-01T08:06:56.631Z,60.44
2023-07-01T08:09:23.279Z,61.06
2023-07-01T08:11:49.942Z,58.38
2023-07-01T08:14:16.542Z,54.93
2023-07-01T08:16:43.238Z,58.23
2023-07-01T08:19:09.882Z,55.48
2023-07-01T08:21:38.964Z,53.49
2023-07-01T08:24:08.806Z,55.14
2023-07-01T08:26:35.545Z,52.45
2023-07-01T08:29:02.335Z,50.62
2023-07-01T08:31:32.419Z,52.97
2023-07-01T08:33:59.596Z,51.24
2023-07-01T08:36:27.074Z,54.68
2023-07-01T08:38:53.785Z,51.17
2023-07-01T08:41:25.390Z,50.61
2023-07-01T08:43:55.472Z,47.84
2023-07-01T08:46:23.895Z,47.37
2023-07-01T08:48:50.790Z,49.91
2023-07-01T08:51:26.285Z,49.68
2023-07-01T08:53:54.072Z,48.45
2023-07-01T08:56:21.512Z,45.65
2023-07-01T08:58:49.106Z,47.43
2023-07-01T09:01:16.969Z,46.21
2023-07-01T09:03:43.773Z,46.02
2023-07-01T09:06:11.496Z,45.11
2023-07-01T09:08:41.611Z,44.56
2023-07-01T09:11:12.350Z,45.59
2023-07-01T09:13:39.065Z,47.07
2023-07-01T09:16:05.673Z,44.79
2023-07-01T09:18:32.423Z,44.46
2023-07-01T09:21:00.063Z,44.20
2023-07-01T09:23:37.846Z,44.81
2023-07-01T09:26:14.617Z,42.42
2023-07-01T09:28:43.122Z,43.08
2023-07-01T09:31:12.401Z,45.24
2023-07-01T09:33:40.087Z,43.95
2023-07-01T09:36:08.284Z,43.45
2023-07-01T09:38:50.501Z,42.47
2023-07-01T09:41:19.942Z,43.09
2023-07-01T09:43:48.420Z,43.08
2023-07-01T09:46:15.180Z,43.44
2023-07-01T09:48:53.068Z,40.55
2023-07-01T09:51:20.803Z,40.00
2023-07-01T09:53:47.954Z,40.78
2023-07-01T09:56:17.968Z,41.60
2023-07-01T09:58:45.814Z,40.32
2023-07-01T10:01:16.968Z,39.53
2023-07-01T10:03:43.912Z,38.83
2023-07-01T10:06:11.944Z,40.39
2023-07-01T10:08:39.344Z,40.11
2023-07-01T10:11:23.397Z,37.45
2023-07-01T10:13:55.525Z,36.59
2023-07-01T10:16:22.659Z,36.30
2023-07-01T10:18:49.328Z,37.45
2023-07-01T10:21:24.898Z,38.74
2023-07-01T10:23:52.913Z,39.14
2023-07-01T10:26:44.738Z,38.19
2023-07-01T10:29:32.799Z,38.56
2023-07-01T10:32:12.293Z,39.48
2023-07-01T10:34:56.600Z,39.17
2023-07-01T10:37:25.665Z,41.07
2023-07-01T10:39:53.780Z,41.14
2023-07-01T10:42:33.241Z,41.24
2023-07-01T10:45:11.599Z,41.08
2023-07-01T10:47:45.742Z,39.26
2023-07-01T10:50:14.230Z,41.44
2023-07-01T10:52:59.488Z,41.28
2023-07-01T10:55:48.047Z,41.20
2023-07-01T10:58:22.443Z,42.03
2023-07-01T11:00:56.643Z,43.79
2023-07-01T11:03:36.194Z,42.85
2023-07-01T11:06:13.283Z,44.64
2023-07-01T11:08:54.514Z,43.23
2023-07-01T11:11:27.580Z,44.58
2023-07-01T11:14:02.750Z,44.64
2023-07-01T11:16:30.364Z,45.95
2023-07-01T11:19:00.636Z,47.26
2023-07-01T11:21:29.113Z,46.22
2023-07-01T11:23:58.879Z,46.37
2023-07-01T11:26:28.541Z,46.21
2023-07-01T11:28:55.205Z,48.68
2023-07-01T11:31:23.743Z,47.04
2023-07-01T11:33:52.199Z,45.34
2023-07-01T11:36:21.092Z,46.98
2023-07-01T11:38:50.091Z,47.29
2023-07-01T11:41:19.156Z,47.75
2023-07-01T11:43:46.800Z,48.68
2023-07-01T11:46:14.544Z,48.63
2023-07-01T11:48:42.490Z,47.12
2023-07-01T11:51:09.356Z,47.89
2023-07-01T11:53:54.596Z,48.04
2023-07-01T11:56:21.353Z,47.94
2023-07-01T12:01:27.708Z,45.64
2023-07-01T12:03:55.144Z,46.90
2023-07-01T12:06:23.557Z,45.63
2023-07-01T12:09:08.158Z,44.80
2023-07-01T12:11:49.449Z,45.67
2023-07-01T12:14:20.775Z,46.89
2023-07-01T12:16:49.207Z,45.80
2023-07-01T12:19:16.386Z,44.94
2023-07-01T12:21:44.406Z,44.25
2023-07-01T12:24:30.503Z,43.98
2023-07-01T12:26:59.392Z,45.14
2023-07-01T12:29:26.533Z,43.08
2023-07-01T12:31:59.140Z,42.95
2023-07-01T12:34:26.443Z,43.11
2023-07-01T12:36:53.919Z,42.92
2023-07-01T12:39:20.865Z,42.96
2023-07-01T12:41:55.532Z,40.67
2023-07-01T12:44:22.511Z,42.06
2023-07-01T12:46:49.198Z,41.39
2023-07-01T12:49:16.233Z,41.12
2023-07-01T12:51:44.327Z,41.15
2023-07-01T12:56:42.441Z,42.88
2023-07-01T12:59:09.359Z,41.82
2023-07-01T13:01:36.189Z,42.08
2023-07-01T13:04:06.186Z,43.08
2023-07-01T13:06:35.227Z,43.43
2023-07-01T13:09:04.651Z,42.79
2023-07-01T13:11:33.937Z,44.38
2023-07-01T13:14:02.401Z,43.78
2023-07-01T13:16:30.259Z,44.33
2023-07-01T13:18:59.366Z,45.50
2023-07-01T13:21:26.089Z,46.48
2023-07-01T13:23:55.564Z,47.38
2023-07-01T13:26:28.705Z,49.10
2023-07-01T13:28:59.491Z,49.13
2023-07-01T13:31:26.756Z,50.79
2023-07-01T13:34:01.072Z,52.67
2023-07-01T13:36:28.393Z,53.31
2023-07-01T13:38:55.113Z,52.68
2023-07-01T13:41:26.866Z,52.11
2023-07-01T13:44:04.221Z,51.98
2023-07-01T13:46:42.070Z,52.07
2023-07-01T13:49:09.681Z,50.38
2023-07-01T13:51:37.883Z,50.81
2023-07-01T13:54:09.111Z,49.74
2023-07-01T13:56:36.741Z,49.10
2023-07-01T13:59:04.825Z,49.66
2023-07-01T14:01:32.316Z,48.78
2023-07-01T14:04:02.521Z,50.55
2023-07-01T14:06:29.824Z,50.13
2023-07-01T14:09:00.126Z,50.04
2023-07-01T14:11:29.124Z,50.19
2023-07-01T14:13:59.924Z,49.37
2023-07-01T14:16:28.029Z,50.44
2023-07-01T14:18:55.070Z,50.70
2023-07-01T14:21:29.564Z,50.51
2023-07-01T14:24:05.421Z,49.98
2023-07-01T14:26:39.164Z,49.98
2023-07-01T14:29:05.852Z,51.20
2023-07-01T14:31:34.051Z,51.23
2023-07-01T14:34:06.794Z,52.24
2023-07-01T14:36:41.415Z,52.68
2023-07-01T14:39:08.697Z,52.58
2023-07-01T14:41:40.630Z,51.85
2023-07-01T14:44:11.573Z,52.68
2023-07-01T14:46:40.860Z,53.40
2023-07-01T14:49:07.542Z,52.23
2023-07-01T14:51:34.160Z,52.37
2023-07-01T14:54:00.854Z,52.34
2023-07-01T14:56:28.877Z,53.12
2023-07-01T14:58:56.096Z,53.01
2023-07-01T15:01:24.257Z,52.82
2023-07-01T15:03:51.382Z,52.81
2023-07-01T15:06:18.490Z,52.70
2023-07-01T15:08:46.709Z,53.91
2023-07-01T15:11:17.211Z,55.01
2023-07-01T15:13:44.531Z,55.68
2023-07-01T15:16:12.094Z,55.59
2023-07-01T15:18:38.869Z,56.42
2023-07-01T15:21:06.516Z,56.68
2023-07-01T15:23:33.299Z,59.13
2023-07-01T15:25:59.952Z,60.89
2023-07-01T15:28:26.647Z,61.17
2023-07-01T15:30:53.411Z,62.38
2023-07-01T15:33:22.515Z,63.15
2023-07-01T15:35:50.472Z,62.80
2023-07-01T15:38:17.406Z,64.05
2023-07-01T15:40:44.137Z,63.39
2023-07-01T15:43:10.910Z,63.53
2023-07-01T15:45:37.537Z,65.96
2023-07-01T15:48:05.054Z,66.46
2023-07-01T15:50:31.700Z,67.03
2023-07-01T15:52:58.391Z,66.89
2023-07-01T15:55:25.196Z,66.81
2023-07-01T15:57:52.040Z,66.86
2023-07-01T16:00:18.962Z,66.84
2023-07-01T16:02:48.877Z,67.19
2023-07-01T16:05:16.257Z,67.92
2023-07-01T16:08:16.054Z,67.47
2023-07-01T16:10:44.015Z,69.03
2023-07-01T16:13:36.905Z,70.71
2023-07-01T16:16:08.535Z,70.86
2023-07-01T16:18:46.525Z,70.22
2023-07-01T16:21:14.486Z,70.24
2023-07-01T16:23:53.408Z,70.45
2023-07-01T16:26:42.941Z,71.00
2023-07-01T16:29:09.976Z,71.63
2023-07-01T16:31:41.858Z,71.96
2023-07-01T16:34:11.696Z,71.56
2023-07-01T16:36:42.000Z,71.44
2023-07-01T16:39:13.410Z,71.29
2023-07-01T16:41:40.616Z,71.62
2023-07-01T16:44:07.408Z,71.11
2023-07-01T16:46:39.155Z,70.83
2023-07-01T16:49:07.979Z,72.94
2023-07-01T16:51:36.656Z,72.08
2023-07-01T16:54:09.924Z,70.84
2023-07-01T16:56:45.871Z,73.83
2023-07-01T16:59:24.309Z,72.20
2023-07-01T17:01:51.991Z,73.18
2023-07-01T17:04:39.219Z,70.68
2023-07-01T17:07:14.470Z,71.46
2023-07-01T17:09:47.961Z,71.70
2023-07-01T17:12:31.433Z,74.37
2023-07-01T17:14:59.902Z,72.78
2023-07-01T17:17:29.696Z,73.39
2023-07-01T17:19:57.477Z,73.69
2023-07-01T17:22:28.818Z,74.07
2023-07-01T17:24:56.033Z,75.26
2023-07-01T17:27:23.116Z,73.72
2023-07-01T17:29:51.572Z,75.03
2023-07-01T17:32:20.811Z,75.08
2023-07-01T17:34:59.677Z,75.35
2023-07-01T17:37:28.669Z,75.16
2023-07-01T17:39:57.330Z,74.93
2023-07-01T17:42:23.959Z,74.04
2023-07-01T17:44:53.889Z,74.51
2023-07-01T17:47:20.940Z,75.12
2023-07-01T17:49:48.013Z,74.56
2023-07-01T17:52:15.128Z,74.32
2023-07-01T17:54:41.755Z,73.80
2023-07-01T17:57:08.615Z,73.78
2023-07-01T17:59:35.561Z,74.54
2023-07-01T18:02:02.255Z,75.48
2023-07-01T18:04:29.045Z,75.30
2023-07-01T18:06:55.962Z,76.00
2023-07-01T18:09:24.597Z,76.40
2023-07-01T18:11:51.460Z,76.67
2023-07-01T18:14:22.781Z,77.34
2023-07-01T18:16:52.277Z,77.61
2023-07-01T18:19:20.248Z,78.57
2023-07-01T18:21:46.937Z,77.63
2023-07-01T18:24:14.481Z,77.55
2023-07-01T18:26:45.022Z,77.54
2023-07-01T18:29:11.959Z,78.74
2023-07-01T18:31:39.973Z,77.91
2023-07-01T18:34:06.889Z,77.92
2023-07-01T18:38:26.667Z,79.03
2023-07-01T18:44:48.172Z,78.47
2023-07-01T18:47:29.727Z,79.33
2023-07-01T18:49:59.366Z,80.12
2023-07-01T18:52:27.134Z,78.96
2023-07-01T18:55:05.397Z,78.76
2023-07-01T18:57:34.323Z,78.98
2023-07-01T19:00:05.204Z,78.82
2023-07-01T19:02:34.447Z,79.97
2023-07-01T19:05:06.108Z,79.05
2023-07-01T19:07:36.638Z,79.15
2023-07-01T19:10:08.553Z,79.97
2023-07-01T19:12:35.656Z,79.65
2023-07-01T19:15:02.352Z,79.24
2023-07-01T19:17:29.029Z,79.69
2023-07-01T19:19:55.710Z,79.53
2023-07-01T19:22:24.571Z,79.44
2023-07-01T19:24:51.972Z,79.26
2023-07-01T19:27:20.176Z,80.01
2023-07-01T19:30:03.306Z,80.48
2023-07-01T19:33:17.097Z,81.66
2023-07-01T19:35:56.634Z,80.34
2023-07-01T19:38:26.499Z,80.85
2023-07-01T19:40:53.160Z,80.56
2023-07-01T19:43:19.813Z,80.89
2023-07-01T19:45:47.083Z,79.89
2023-07-01T19:48:14.135Z,80.14
2023-07-01T19:50:42.821Z,79.79
2023-07-01T19:53:10.016Z,80.04
2023-07-01T19:55:36.690Z,80.15
2023-07-01T19:58:03.330Z,80.67
2023-07-01T20:00:29.950Z,80.40
2023-07-01T20:02:56.791Z,80.80
2023-07-01T20:05:24.348Z,81.51
2023-07-01T20:07:53.537Z,80.63
2023-07-01T20:10:30.387Z,80.61
2023-07-01T20:12:59.362Z,80.93
2023-07-01T20:15:26.150Z,81.19
2023-07-01T20:17:53.184Z,81.25
2023-07-01T20:20:20.032Z,81.11
2023-07-01T20:22:46.962Z,81.22
2023-07-01T20:25:13.671Z,81.68
2023-07-01T20:27:40.530Z,81.58
2023-07-01T20:30:09.821Z,81.13
2023-07-01T20:32:36.593Z,81.24
2023-07-01T20:35:05.458Z,81.33
2023-07-01T20:37:32.957Z,82.04
2023-07-01T20:40:00.058Z,81.47
2023-07-01T20:42:27.310Z,81.04
2023-07-01T20:44:53.997Z,81.53
2023-07-01T20:47:21.565Z,82.43
2023-07-01T20:49:48.602Z,81.75
2023-07-01T20:52:18.592Z,81.35
2023-07-01T20:54:46.739Z,81.71
2023-07-01T20:57:17.455Z,81.54
2023-07-01T20:59:45.319Z,81.71
2023-07-01T21:02:12.573Z,81.16
2023-07-01T21:04:39.382Z,80.94
2023-07-01T21:07:07.148Z,82.05
2023-07-01T21:09:34.069Z,81.55
2023-07-01T21:12:00.742Z,81.66
2023-07-01T21:14:27.718Z,81.31
2023-07-01T21:16:57.379Z,81.36
2023-07-01T21:19:24.360Z,80.54
2023-07-01T21:21:53.061Z,81.12
2023-07-01T21:24:20.033Z,80.78
2023-07-01T21:26:46.780Z,80.76
2023-07-01T21:29:15.950Z,80.87
2023-07-01T21:31:53.405Z,80.78
2023-07-01T21:34:21.989Z,80.89
2023-07-01T21:36:53.430Z,80.41
2023-07-01T21:39:23.795Z,80.26
2023-07-01T21:41:52.673Z,80.35
2023-07-01T21:44:19.563Z,80.38
2023-07-01T21:46:47.237Z,80.80
2023-07-01T21:49:17.240Z,81.40
2023-07-01T21:51:48.205Z,81.31
2023-07-01T21:54:20.355Z,81.25
2023-07-01T21:56:47.617Z,81.20
2023-07-01T21:59:15.114Z,81.31
2023-07-01T22:01:48.949Z,81.19
2023-07-01T22:04:18.159Z,81.69
2023-07-01T22:06:49.441Z,81.47
2023-07-01T22:09:16.315Z,82.09
2023-07-01T22:11:43.249Z,81.56
2023-07-01T22:14:10.134Z,80.95
2023-07-01T22:16:39.797Z,81.08
2023-07-01T22:19:06.407Z,80.35
2023-07-01T22:21:33.261Z,81.59
2023-07-01T22:24:06.789Z,81.43
2023-07-01T22:26:34.471Z,81.76
2023-07-01T22:29:01.755Z,81.46
2023-07-01T22:31:28.479Z,81.27
2023-07-01T22:33:58.296Z,81.59
2023-07-01T22:36:27.718Z,81.92
2023-07-01T22:38:56.563Z,82.13
2023-07-01T22:41:23.665Z,81.95
2023-07-01T22:43:52.203Z,82.31
2023-07-01T22:46:18.937Z,82.27
2023-07-01T22:48:48.127Z,82.98
2023-07-01T22:51:16.123Z,82.36
2023-07-01T22:53:44.695Z,81.93
2023-07-01T22:56:11.318Z,82.33
2023-07-01T22:58:37.881Z,82.05
2023-07-01T23:01:04.467Z,82.03
2023-07-01T23:03:31.103Z,82.14
2023-07-01T23:05:57.725Z,81.85
2023-07-01T23:08:24.351Z,81.99
2023-07-01T23:10:51.268Z,81.53
2023-07-01T23:13:18.108Z,82.24
2023-07-01T23:15:44.722Z,82.27
2023-07-01T23:18:11.353Z,81.91
2023-07-01T23:20:41.334Z,81.97
2023-07-01T23:23:08.161Z,81.97
2023-07-01T23:25:34.777Z,82.09
2023-07-01T23:28:11.309Z,82.25
2023-07-01T23:30:44.255Z,82.08
2023-07-01T23:33:11.912Z,82.21
2023-07-01T23:35:38.616Z,82.68
2023-07-01T23:38:07.621Z,83.01
2023-07-01T23:40:34.201Z,82.34
2023-07-01T23:43:00.821Z,82.10
2023-07-01T23:45:27.419Z,81.88
2023-07-01T23:47:54.094Z,82.44
2023-07-01T23:50:22.648Z,82.48
2023-07-01T23:52:49.333Z,82.34
2023-07-01T23:55:16.313Z,82.11
2023-07-01T23:57:43.975Z,81.92
